sensor_id;sensor_type;location;lat;lon;timestamp;temperature;humidity
48208;DHT22;33997;53.278;9.708;2022-10-23T00:01:28;10.50;99.90
48208;DHT22;33997;53.278;9.708;2022-10-23T00:03:57;10.60;99.90
48208;DHT22;33997;53.278;9.708;2022-10-23T00:06:23;10.50;99.90
48208;DHT22;33997;53.278;9.708;2022-10-23T00:08:49;10.50;99.90
48208;DHT22;33997;53.278;9.708;2022-10-23T00:11:15;10.50;99.90
48208;DHT22;33997;53.278;9.708;2022-10-23T00:13:41;10.40;99.90
48208;DHT22;33997;53.278;9.708;2022-10-23T00:16:07;10.40;99.90
48208;DHT22;33997;53.278;9.708;2022-10-23T00:18:33;10.40;99.90
48208;DHT22;33997;53.278;9.708;2022-10-23T00:20:58;10.40;99.90
48208;DHT22;33997;53.278;9.708;2022-10-23T00:23:24;10.40;99.90
48208;DHT22;33997;53.278;9.708;2022-10-23T00:25:49;10.40;99.90
48208;DHT22;33997;53.278;9.708;2022-10-23T00:28:15;10.40;99.90
48208;DHT22;33997;53.278;9.708;2022-10-23T00:30:41;10.40;99.90
48208;DHT22;33997;53.278;9.708;2022-10-23T00:33:07;10.40;99.90
48208;DHT22;33997;53.278;9.708;2022-10-23T00:35:32;10.30;99.90
48208;DHT22;33997;53.278;9.708;2022-10-23T00:37:57;10.40;99.90
48208;DHT22;33997;53.278;9.708;2022-10-23T00:40:23;10.40;99.90
48208;DHT22;33997;53.278;9.708;2022-10-23T00:42:48;10.50;99.90
48208;DHT22;33997;53.278;9.708;2022-10-23T00:45:19;10.40;99.90
48208;DHT22;33997;53.278;9.708;2022-10-23T00:47:45;10.50;99.90
48208;DHT22;33997;53.278;9.708;2022-10-23T00:50:11;10.50;99.90
48208;DHT22;33997;53.278;9.708;2022-10-23T00:52:38;10.40;99.90
48208;DHT22;33997;53.278;9.708;2022-10-23T00:55:05;10.40;99.90
48208;DHT22;33997;53.278;9.708;2022-10-23T00:57:31;10.30;99.90
48208;DHT22;33997;53.278;9.708;2022-10-23T00:59:56;10.30;99.90
48208;DHT22;33997;53.278;9.708;2022-10-23T01:02:21;10.20;99.90
48208;DHT22;33997;53.278;9.708;2022-10-23T01:04:47;10.20;99.90
48208;DHT22;33997;53.278;9.708;2022-10-23T01:07:25;10.20;99.90
48208;DHT22;33997;53.278;9.708;2022-10-23T01:10:00;10.10;99.90
48208;DHT22;33997;53.278;9.708;2022-10-23T01:12:28;10.10;99.90
48208;DHT22;33997;53.278;9.708;2022-10-23T01:15:05;10.00;99.90
48208;DHT22;33997;53.278;9.708;2022-10-23T01:17:34;10.00;99.90
48208;DHT22;33997;53.278;9.708;2022-10-23T01:28:42;10.00;99.90
48208;DHT22;33997;53.278;9.708;2022-10-23T01:31:05;10.00;99.90
48208;DHT22;33997;53.278;9.708;2022-10-23T01:33:38;10.10;99.90
48208;DHT22;33997;53.278;9.708;2022-10-23T01:36:05;10.20;99.90
48208;DHT22;33997;53.278;9.708;2022-10-23T01:38:35;10.20;99.90
48208;DHT22;33997;53.278;9.708;2022-10-23T01:41:12;10.20;99.90
48208;DHT22;33997;53.278;9.708;2022-10-23T01:44:22;10.20;99.90
48208;DHT22;33997;53.278;9.708;2022-10-23T01:46:28;10.20;99.90
48208;DHT22;33997;53.278;9.708;2022-10-23T01:48:54;10.20;99.90
48208;DHT22;33997;53.278;9.708;2022-10-23T01:51:21;10.10;99.90
48208;DHT22;33997;53.278;9.708;2022-10-23T01:53:47;10.10;99.90
48208;DHT22;33997;53.278;9.708;2022-10-23T01:56:18;10.10;99.90
48208;DHT22;33997;53.278;9.708;2022-10-23T01:58:45;10.10;99.90
48208;DHT22;33997;53.278;9.708;2022-10-23T02:01:11;10.10;99.90
48208;DHT22;33997;53.278;9.708;2022-10-23T02:03:38;10.10;99.90
48208;DHT22;33997;53.278;9.708;2022-10-23T02:06:04;10.10;99.90
48208;DHT22;33997;53.278;9.708;2022-10-23T02:08:30;10.10;99.90
48208;DHT22;33997;53.278;9.708;2022-10-23T02:13:37;10.10;99.90
48208;DHT22;33997;53.278;9.708;2022-10-23T02:16:22;10.10;99.90
48208;DHT22;33997;53.278;9.708;2022-10-23T02:18:50;10.10;99.90
48208;DHT22;33997;53.278;9.708;2022-10-23T02:21:18;10.00;99.90
48208;DHT22;33997;53.278;9.708;2022-10-23T02:24:28;10.00;99.90
48208;DHT22;33997;53.278;9.708;2022-10-23T02:26:35;10.00;99.90
48208;DHT22;33997;53.278;9.708;2022-10-23T02:29:06;10.00;99.90
48208;DHT22;33997;53.278;9.708;2022-10-23T02:31:33;9.90;99.90
48208;DHT22;33997;53.278;9.708;2022-10-23T02:33:58;10.00;99.90
48208;DHT22;33997;53.278;9.708;2022-10-23T02:36:24;10.00;99.90
48208;DHT22;33997;53.278;9.708;2022-10-23T02:38:49;10.00;99.90
48208;DHT22;33997;53.278;9.708;2022-10-23T02:41:21;10.00;99.90
48208;DHT22;33997;53.278;9.708;2022-10-23T02:43:58;10.00;99.90
48208;DHT22;33997;53.278;9.708;2022-10-23T02:51:40;10.10;99.90
48208;DHT22;33997;53.278;9.708;2022-10-23T02:56:51;10.30;99.90
48208;DHT22;33997;53.278;9.708;2022-10-23T02:59:19;10.30;99.90
48208;DHT22;33997;53.278;9.708;2022-10-23T03:01:50;10.30;99.90
48208;DHT22;33997;53.278;9.708;2022-10-23T03:04:17;10.20;99.90
48208;DHT22;33997;53.278;9.708;2022-10-23T03:06:44;10.20;99.90
48208;DHT22;33997;53.278;9.708;2022-10-23T03:09:09;10.10;99.90
48208;DHT22;33997;53.278;9.708;2022-10-23T03:11:35;10.00;99.90
48208;DHT22;33997;53.278;9.708;2022-10-23T03:14:00;10.00;99.90
48208;DHT22;33997;53.278;9.708;2022-10-23T03:16:26;9.90;99.90
48208;DHT22;33997;53.278;9.708;2022-10-23T03:18:51;9.80;99.90
48208;DHT22;33997;53.278;9.708;2022-10-23T03:21:17;9.70;99.90
48208;DHT22;33997;53.278;9.708;2022-10-23T03:23:42;9.60;99.90
48208;DHT22;33997;53.278;9.708;2022-10-23T03:26:08;9.60;99.90
48208;DHT22;33997;53.278;9.708;2022-10-23T03:28:33;9.50;99.90
48208;DHT22;33997;53.278;9.708;2022-10-23T03:30:59;9.50;99.90
48208;DHT22;33997;53.278;9.708;2022-10-23T03:33:26;9.40;99.90
48208;DHT22;33997;53.278;9.708;2022-10-23T03:35:52;9.30;99.90
48208;DHT22;33997;53.278;9.708;2022-10-23T03:38:17;9.40;99.90
48208;DHT22;33997;53.278;9.708;2022-10-23T03:40:42;9.30;99.90
48208;DHT22;33997;53.278;9.708;2022-10-23T03:43:08;9.30;99.90
48208;DHT22;33997;53.278;9.708;2022-10-23T03:45:33;9.30;99.90
48208;DHT22;33997;53.278;9.708;2022-10-23T03:47:59;9.20;99.90
48208;DHT22;33997;53.278;9.708;2022-10-23T03:50:24;9.30;99.90
48208;DHT22;33997;53.278;9.708;2022-10-23T03:52:49;9.20;99.90
48208;DHT22;33997;53.278;9.708;2022-10-23T03:55:15;9.10;99.90
48208;DHT22;33997;53.278;9.708;2022-10-23T03:57:41;9.10;99.90
48208;DHT22;33997;53.278;9.708;2022-10-23T04:00:06;9.10;99.90
48208;DHT22;33997;53.278;9.708;2022-10-23T04:02:32;9.10;99.90
48208;DHT22;33997;53.278;9.708;2022-10-23T04:04:58;9.20;99.90
48208;DHT22;33997;53.278;9.708;2022-10-23T04:07:23;9.20;99.90
48208;DHT22;33997;53.278;9.708;2022-10-23T04:09:49;9.10;99.90
48208;DHT22;33997;53.278;9.708;2022-10-23T04:12:14;9.10;99.90
48208;DHT22;33997;53.278;9.708;2022-10-23T04:14:39;9.10;99.90
48208;DHT22;33997;53.278;9.708;2022-10-23T04:17:05;9.10;99.90
48208;DHT22;33997;53.278;9.708;2022-10-23T04:19:30;9.00;99.90
48208;DHT22;33997;53.278;9.708;2022-10-23T04:21:56;9.00;99.90
48208;DHT22;33997;53.278;9.708;2022-10-23T04:24:22;9.00;99.90
48208;DHT22;33997;53.278;9.708;2022-10-23T04:26:47;9.10;99.90
48208;DHT22;33997;53.278;9.708;2022-10-23T04:29:13;9.10;99.90
48208;DHT22;33997;53.278;9.708;2022-10-23T04:31:38;9.10;99.90
48208;DHT22;33997;53.278;9.708;2022-10-23T04:34:04;9.00;99.90
48208;DHT22;33997;53.278;9.708;2022-10-23T04:36:29;9.00;99.90
48208;DHT22;33997;53.278;9.708;2022-10-23T04:38:54;9.00;99.90
48208;DHT22;33997;53.278;9.708;2022-10-23T04:41:20;8.90;99.90
48208;DHT22;33997;53.278;9.708;2022-10-23T04:43:45;9.00;99.90
48208;DHT22;33997;53.278;9.708;2022-10-23T04:46:11;9.00;99.90
48208;DHT22;33997;53.278;9.708;2022-10-23T04:48:36;9.00;99.90
48208;DHT22;33997;53.278;9.708;2022-10-23T04:51:02;9.00;99.90
48208;DHT22;33997;53.278;9.708;2022-10-23T04:53:28;9.00;99.90
48208;DHT22;33997;53.278;9.708;2022-10-23T04:55:55;9.00;99.90
48208;DHT22;33997;53.278;9.708;2022-10-23T04:58:21;8.90;99.90
48208;DHT22;33997;53.278;9.708;2022-10-23T05:00:46;8.90;99.90
48208;DHT22;33997;53.278;9.708;2022-10-23T05:03:13;8.90;99.90
48208;DHT22;33997;53.278;9.708;2022-10-23T05:05:39;8.80;99.90
48208;DHT22;33997;53.278;9.708;2022-10-23T05:08:05;8.90;99.90
48208;DHT22;33997;53.278;9.708;2022-10-23T05:10:31;8.90;99.90
48208;DHT22;33997;53.278;9.708;2022-10-23T05:12:56;8.80;99.90
48208;DHT22;33997;53.278;9.708;2022-10-23T05:15:22;8.80;99.90
48208;DHT22;33997;53.278;9.708;2022-10-23T05:17:48;8.80;99.90
48208;DHT22;33997;53.278;9.708;2022-10-23T05:20:15;8.80;99.90
48208;DHT22;33997;53.278;9.708;2022-10-23T05:22:42;8.70;99.90
48208;DHT22;33997;53.278;9.708;2022-10-23T05:25:09;8.70;99.90
48208;DHT22;33997;53.278;9.708;2022-10-23T05:27:34;8.60;99.90
48208;DHT22;33997;53.278;9.708;2022-10-23T05:30:00;8.60;99.90
48208;DHT22;33997;53.278;9.708;2022-10-23T05:32:26;8.60;99.90
48208;DHT22;33997;53.278;9.708;2022-10-23T05:34:53;8.60;99.90
48208;DHT22;33997;53.278;9.708;2022-10-23T05:37:19;8.60;99.90
48208;DHT22;33997;53.278;9.708;2022-10-23T05:39:45;8.60;99.90
48208;DHT22;33997;53.278;9.708;2022-10-23T05:42:10;8.70;99.90
48208;DHT22;33997;53.278;9.708;2022-10-23T05:44:36;8.60;99.90
48208;DHT22;33997;53.278;9.708;2022-10-23T05:47:01;8.60;99.90
48208;DHT22;33997;53.278;9.708;2022-10-23T05:49:27;8.70;99.90
48208;DHT22;33997;53.278;9.708;2022-10-23T05:51:52;8.70;99.90
48208;DHT22;33997;53.278;9.708;2022-10-23T05:54:17;8.80;99.90
48208;DHT22;33997;53.278;9.708;2022-10-23T05:56:43;8.80;99.90
48208;DHT22;33997;53.278;9.708;2022-10-23T05:59:08;8.90;99.90
48208;DHT22;33997;53.278;9.708;2022-10-23T06:01:34;8.90;99.90
48208;DHT22;33997;53.278;9.708;2022-10-23T06:04:01;9.00;99.90
48208;DHT22;33997;53.278;9.708;2022-10-23T06:06:26;9.00;99.90
48208;DHT22;33997;53.278;9.708;2022-10-23T06:08:52;9.10;99.90
48208;DHT22;33997;53.278;9.708;2022-10-23T06:11:18;9.10;99.90
48208;DHT22;33997;53.278;9.708;2022-10-23T06:13:44;9.10;99.90
48208;DHT22;33997;53.278;9.708;2022-10-23T06:16:22;9.10;99.90
48208;DHT22;33997;53.278;9.708;2022-10-23T06:18:48;9.10;99.90
48208;DHT22;33997;53.278;9.708;2022-10-23T06:21:14;9.10;99.90
48208;DHT22;33997;53.278;9.708;2022-10-23T06:23:40;9.10;99.90
48208;DHT22;33997;53.278;9.708;2022-10-23T06:26:06;9.10;99.90
48208;DHT22;33997;53.278;9.708;2022-10-23T06:28:32;9.10;99.90
48208;DHT22;33997;53.278;9.708;2022-10-23T06:30:58;9.10;99.90
48208;DHT22;33997;53.278;9.708;2022-10-23T06:33:23;9.10;99.90
48208;DHT22;33997;53.278;9.708;2022-10-23T06:35:48;9.10;99.90
48208;DHT22;33997;53.278;9.708;2022-10-23T06:38:14;9.10;99.90
48208;DHT22;33997;53.278;9.708;2022-10-23T06:40:39;9.20;99.90
48208;DHT22;33997;53.278;9.708;2022-10-23T06:43:05;9.20;99.90
48208;DHT22;33997;53.278;9.708;2022-10-23T06:45:33;9.30;99.90
48208;DHT22;33997;53.278;9.708;2022-10-23T06:47:58;9.30;99.90
48208;DHT22;33997;53.278;9.708;2022-10-23T06:50:24;9.40;99.90
48208;DHT22;33997;53.278;9.708;2022-10-23T06:52:50;9.40;99.90
48208;DHT22;33997;53.278;9.708;2022-10-23T06:55:15;9.50;99.90
48208;DHT22;33997;53.278;9.708;2022-10-23T06:57:41;9.60;99.90
48208;DHT22;33997;53.278;9.708;2022-10-23T07:00:07;9.60;99.90
48208;DHT22;33997;53.278;9.708;2022-10-23T07:02:32;9.60;99.90
48208;DHT22;33997;53.278;9.708;2022-10-23T07:04:58;9.70;99.90
48208;DHT22;33997;53.278;9.708;2022-10-23T07:07:23;9.80;99.90
48208;DHT22;33997;53.278;9.708;2022-10-23T07:09:48;9.90;99.90
48208;DHT22;33997;53.278;9.708;2022-10-23T07:12:14;10.00;99.90
48208;DHT22;33997;53.278;9.708;2022-10-23T07:14:39;9.90;99.90
48208;DHT22;33997;53.278;9.708;2022-10-23T07:17:05;10.10;99.90
48208;DHT22;33997;53.278;9.708;2022-10-23T07:19:30;10.10;99.90
48208;DHT22;33997;53.278;9.708;2022-10-23T07:21:55;10.10;99.90
48208;DHT22;33997;53.278;9.708;2022-10-23T07:24:21;10.10;99.90
48208;DHT22;33997;53.278;9.708;2022-10-23T07:26:46;10.20;99.90
48208;DHT22;33997;53.278;9.708;2022-10-23T07:29:12;10.20;99.90
48208;DHT22;33997;53.278;9.708;2022-10-23T07:31:37;10.30;99.90
48208;DHT22;33997;53.278;9.708;2022-10-23T07:34:03;10.40;99.90
48208;DHT22;33997;53.278;9.708;2022-10-23T07:36:28;10.40;99.90
48208;DHT22;33997;53.278;9.708;2022-10-23T07:38:54;10.50;99.90
48208;DHT22;33997;53.278;9.708;2022-10-23T07:41:19;10.50;99.90
48208;DHT22;33997;53.278;9.708;2022-10-23T07:43:45;10.60;99.90
48208;DHT22;33997;53.278;9.708;2022-10-23T07:46:10;10.70;99.90
48208;DHT22;33997;53.278;9.708;2022-10-23T07:48:36;10.80;99.90
48208;DHT22;33997;53.278;9.708;2022-10-23T07:51:03;10.90;99.90
48208;DHT22;33997;53.278;9.708;2022-10-23T07:53:32;10.90;99.90
48208;DHT22;33997;53.278;9.708;2022-10-23T07:55:59;11.10;99.90
48208;DHT22;33997;53.278;9.708;2022-10-23T07:58:25;11.20;99.90
48208;DHT22;33997;53.278;9.708;2022-10-23T08:00:55;11.30;99.90
48208;DHT22;33997;53.278;9.708;2022-10-23T08:03:40;11.50;99.90
48208;DHT22;33997;53.278;9.708;2022-10-23T08:06:06;11.50;99.90
48208;DHT22;33997;53.278;9.708;2022-10-23T08:08:31;11.50;99.90
48208;DHT22;33997;53.278;9.708;2022-10-23T08:10:57;11.60;99.90
48208;DHT22;33997;53.278;9.708;2022-10-23T08:13:22;11.70;99.90
48208;DHT22;33997;53.278;9.708;2022-10-23T08:15:48;11.80;99.90
48208;DHT22;33997;53.278;9.708;2022-10-23T08:18:14;12.00;99.90
48208;DHT22;33997;53.278;9.708;2022-10-23T08:20:44;12.10;99.90
48208;DHT22;33997;53.278;9.708;2022-10-23T08:23:10;12.20;99.90
48208;DHT22;33997;53.278;9.708;2022-10-23T08:25:36;12.40;99.90
48208;DHT22;33997;53.278;9.708;2022-10-23T08:28:02;12.40;99.90
48208;DHT22;33997;53.278;9.708;2022-10-23T08:30:27;12.40;99.90
48208;DHT22;33997;53.278;9.708;2022-10-23T08:32:53;12.60;99.90
48208;DHT22;33997;53.278;9.708;2022-10-23T08:35:18;12.80;99.90
48208;DHT22;33997;53.278;9.708;2022-10-23T08:37:44;12.80;99.90
48208;DHT22;33997;53.278;9.708;2022-10-23T08:40:13;12.70;99.80
48208;DHT22;33997;53.278;9.708;2022-10-23T08:42:39;12.80;99.70
48208;DHT22;33997;53.278;9.708;2022-10-23T08:45:06;12.80;99.30
48208;DHT22;33997;53.278;9.708;2022-10-23T08:47:43;12.80;99.10
48208;DHT22;33997;53.278;9.708;2022-10-23T08:50:11;12.80;98.70
48208;DHT22;33997;53.278;9.708;2022-10-23T08:52:38;12.80;98.70
48208;DHT22;33997;53.278;9.708;2022-10-23T08:57:35;12.90;98.50
48208;DHT22;33997;53.278;9.708;2022-10-23T09:00:06;13.00;98.40
48208;DHT22;33997;53.278;9.708;2022-10-23T09:02:42;13.00;98.10
48208;DHT22;33997;53.278;9.708;2022-10-23T09:05:17;13.00;98.20
48208;DHT22;33997;53.278;9.708;2022-10-23T09:07:54;13.10;98.10
48208;DHT22;33997;53.278;9.708;2022-10-23T09:13:19;13.20;97.30
48208;DHT22;33997;53.278;9.708;2022-10-23T09:15:51;13.30;97.20
48208;DHT22;33997;53.278;9.708;2022-10-23T09:18:22;13.40;97.30
48208;DHT22;33997;53.278;9.708;2022-10-23T09:20:48;13.50;97.30
48208;DHT22;33997;53.278;9.708;2022-10-23T09:23:17;13.50;97.20
48208;DHT22;33997;53.278;9.708;2022-10-23T09:25:44;13.50;96.20
48208;DHT22;33997;53.278;9.708;2022-10-23T09:28:17;13.60;96.70
48208;DHT22;33997;53.278;9.708;2022-10-23T09:30:43;13.60;96.60
48208;DHT22;33997;53.278;9.708;2022-10-23T09:33:27;13.60;96.60
48208;DHT22;33997;53.278;9.708;2022-10-23T09:35:53;13.70;96.30
48208;DHT22;33997;53.278;9.708;2022-10-23T09:38:22;13.80;96.20
48208;DHT22;33997;53.278;9.708;2022-10-23T09:40:50;13.90;95.90
48208;DHT22;33997;53.278;9.708;2022-10-23T09:43:16;14.00;95.90
48208;DHT22;33997;53.278;9.708;2022-10-23T09:45:42;14.00;95.60
48208;DHT22;33997;53.278;9.708;2022-10-23T09:48:11;14.10;95.60
48208;DHT22;33997;53.278;9.708;2022-10-23T09:50:41;14.10;94.80
48208;DHT22;33997;53.278;9.708;2022-10-23T09:53:10;14.20;95.10
48208;DHT22;33997;53.278;9.708;2022-10-23T09:55:39;14.10;94.70
48208;DHT22;33997;53.278;9.708;2022-10-23T09:58:04;14.20;94.80
48208;DHT22;33997;53.278;9.708;2022-10-23T10:00:30;14.20;94.70
48208;DHT22;33997;53.278;9.708;2022-10-23T10:05:31;14.40;94.60
48208;DHT22;33997;53.278;9.708;2022-10-23T10:08:11;14.50;94.40
48208;DHT22;33997;53.278;9.708;2022-10-23T10:10:46;14.50;94.10
48208;DHT22;33997;53.278;9.708;2022-10-23T10:18:34;14.70;93.50
48208;DHT22;33997;53.278;9.708;2022-10-23T10:23:56;15.00;93.30
48208;DHT22;33997;53.278;9.708;2022-10-23T10:26:28;15.10;93.20
48208;DHT22;33997;53.278;9.708;2022-10-23T10:29:16;15.10;92.70
48208;DHT22;33997;53.278;9.708;2022-10-23T10:32:01;15.10;91.90
48208;DHT22;33997;53.278;9.708;2022-10-23T10:34:42;15.30;92.40
48208;DHT22;33997;53.278;9.708;2022-10-23T10:40:00;15.50;91.40
48208;DHT22;33997;53.278;9.708;2022-10-23T10:52:41;16.40;90.00
48208;DHT22;33997;53.278;9.708;2022-10-23T10:55:41;16.50;88.80
48208;DHT22;33997;53.278;9.708;2022-10-23T11:00:55;16.60;87.90
48208;DHT22;33997;53.278;9.708;2022-10-23T11:03:36;16.50;88.40
48208;DHT22;33997;53.278;9.708;2022-10-23T11:06:04;16.30;88.50
48208;DHT22;33997;53.278;9.708;2022-10-23T11:08:37;16.30;88.80
48208;DHT22;33997;53.278;9.708;2022-10-23T11:11:38;16.40;88.80
48208;DHT22;33997;53.278;9.708;2022-10-23T11:13:55;16.40;88.90
48208;DHT22;33997;53.278;9.708;2022-10-23T11:19:02;16.40;89.10
48208;DHT22;33997;53.278;9.708;2022-10-23T11:24:03;16.50;88.70
48208;DHT22;33997;53.278;9.708;2022-10-23T11:36:56;16.90;87.40
48208;DHT22;33997;53.278;9.708;2022-10-23T11:39:27;17.00;87.40
48208;DHT22;33997;53.278;9.708;2022-10-23T11:41:55;17.00;87.10
48208;DHT22;33997;53.278;9.708;2022-10-23T11:44:26;17.00;86.90
48208;DHT22;33997;53.278;9.708;2022-10-23T11:47:01;17.00;86.80
48208;DHT22;33997;53.278;9.708;2022-10-23T11:49:27;17.10;86.70
48208;DHT22;33997;53.278;9.708;2022-10-23T11:51:59;17.00;86.20
48208;DHT22;33997;53.278;9.708;2022-10-23T11:54:25;17.20;86.30
48208;DHT22;33997;53.278;9.708;2022-10-23T11:57:09;17.20;85.40
48208;DHT22;33997;53.278;9.708;2022-10-23T11:59:49;17.50;85.70
48208;DHT22;33997;53.278;9.708;2022-10-23T12:02:31;17.70;85.20
48208;DHT22;33997;53.278;9.708;2022-10-23T12:05:00;17.70;84.20
48208;DHT22;33997;53.278;9.708;2022-10-23T12:07:31;17.80;84.10
48208;DHT22;33997;53.278;9.708;2022-10-23T12:09:59;17.50;83.40
48208;DHT22;33997;53.278;9.708;2022-10-23T12:12:30;17.50;84.10
48208;DHT22;33997;53.278;9.708;2022-10-23T12:17:53;17.60;84.80
48208;DHT22;33997;53.278;9.708;2022-10-23T12:38:27;17.60;84.60
48208;DHT22;33997;53.278;9.708;2022-10-23T12:40:55;17.80;85.00
48208;DHT22;33997;53.278;9.708;2022-10-23T12:45:50;17.30;84.90
48208;DHT22;33997;53.278;9.708;2022-10-23T12:48:19;17.40;85.20
48208;DHT22;33997;53.278;9.708;2022-10-23T12:50:50;17.40;85.50
48208;DHT22;33997;53.278;9.708;2022-10-23T12:53:17;17.40;86.10
48208;DHT22;33997;53.278;9.708;2022-10-23T12:55:59;17.50;86.20
48208;DHT22;33997;53.278;9.708;2022-10-23T12:58:31;17.50;86.40
48208;DHT22;33997;53.278;9.708;2022-10-23T13:00:58;17.40;85.60
48208;DHT22;33997;53.278;9.708;2022-10-23T13:03:24;17.30;85.70
48208;DHT22;33997;53.278;9.708;2022-10-23T13:05:51;17.30;85.70
48208;DHT22;33997;53.278;9.708;2022-10-23T13:08:17;17.20;85.80
48208;DHT22;33997;53.278;9.708;2022-10-23T13:10:43;17.10;86.20
48208;DHT22;33997;53.278;9.708;2022-10-23T13:13:10;17.10;86.30
48208;DHT22;33997;53.278;9.708;2022-10-23T13:15:45;17.20;86.70
48208;DHT22;33997;53.278;9.708;2022-10-23T13:18:12;17.20;86.00
48208;DHT22;33997;53.278;9.708;2022-10-23T13:20:42;17.40;86.20
48208;DHT22;33997;53.278;9.708;2022-10-23T13:25:59;17.50;85.30
48208;DHT22;33997;53.278;9.708;2022-10-23T13:28:26;17.70;85.10
48208;DHT22;33997;53.278;9.708;2022-10-23T13:31:06;17.80;85.00
48208;DHT22;33997;53.278;9.708;2022-10-23T13:33:42;17.80;84.70
48208;DHT22;33997;53.278;9.708;2022-10-23T13:38:34;17.70;85.30
48208;DHT22;33997;53.278;9.708;2022-10-23T13:41:01;17.50;84.70
48208;DHT22;33997;53.278;9.708;2022-10-23T13:43:27;17.50;85.20
48208;DHT22;33997;53.278;9.708;2022-10-23T13:45:55;17.50;85.20
48208;DHT22;33997;53.278;9.708;2022-10-23T13:48:20;17.50;85.60
48208;DHT22;33997;53.278;9.708;2022-10-23T13:50:46;17.40;85.80
48208;DHT22;33997;53.278;9.708;2022-10-23T13:53:12;17.40;86.20
48208;DHT22;33997;53.278;9.708;2022-10-23T13:55:38;17.30;86.20
48208;DHT22;33997;53.278;9.708;2022-10-23T13:58:04;17.30;86.90
48208;DHT22;33997;53.278;9.708;2022-10-23T14:00:30;17.20;87.00
48208;DHT22;33997;53.278;9.708;2022-10-23T14:02:55;17.00;87.50
48208;DHT22;33997;53.278;9.708;2022-10-23T14:05:21;17.00;87.80
48208;DHT22;33997;53.278;9.708;2022-10-23T14:07:46;17.00;87.90
48208;DHT22;33997;53.278;9.708;2022-10-23T14:10:12;17.00;88.70
48208;DHT22;33997;53.278;9.708;2022-10-23T14:12:40;16.90;88.70
48208;DHT22;33997;53.278;9.708;2022-10-23T14:15:06;16.80;89.20
48208;DHT22;33997;53.278;9.708;2022-10-23T14:17:32;16.70;89.20
48208;DHT22;33997;53.278;9.708;2022-10-23T14:19:58;16.70;89.70
48208;DHT22;33997;53.278;9.708;2022-10-23T14:22:23;16.60;89.80
48208;DHT22;33997;53.278;9.708;2022-10-23T14:24:49;16.60;89.80
48208;DHT22;33997;53.278;9.708;2022-10-23T14:27:14;16.50;89.90
48208;DHT22;33997;53.278;9.708;2022-10-23T14:29:40;16.50;90.20
48208;DHT22;33997;53.278;9.708;2022-10-23T14:32:06;16.40;90.30
48208;DHT22;33997;53.278;9.708;2022-10-23T14:34:31;16.40;90.60
48208;DHT22;33997;53.278;9.708;2022-10-23T14:36:57;16.40;90.50
48208;DHT22;33997;53.278;9.708;2022-10-23T14:39:22;16.40;90.60
48208;DHT22;33997;53.278;9.708;2022-10-23T14:41:47;16.30;90.80
48208;DHT22;33997;53.278;9.708;2022-10-23T14:44:13;16.30;91.00
48208;DHT22;33997;53.278;9.708;2022-10-23T14:46:38;16.20;91.10
48208;DHT22;33997;53.278;9.708;2022-10-23T14:49:04;16.20;91.30
48208;DHT22;33997;53.278;9.708;2022-10-23T14:51:29;16.20;91.50
48208;DHT22;33997;53.278;9.708;2022-10-23T14:53:56;16.10;91.40
48208;DHT22;33997;53.278;9.708;2022-10-23T14:56:23;16.10;91.70
48208;DHT22;33997;53.278;9.708;2022-10-23T14:58:49;16.00;92.00
48208;DHT22;33997;53.278;9.708;2022-10-23T15:01:14;16.00;92.00
48208;DHT22;33997;53.278;9.708;2022-10-23T15:03:40;16.00;92.20
48208;DHT22;33997;53.278;9.708;2022-10-23T15:06:06;15.90;92.30
48208;DHT22;33997;53.278;9.708;2022-10-23T15:08:32;15.80;92.40
48208;DHT22;33997;53.278;9.708;2022-10-23T15:11:01;15.80;92.40
48208;DHT22;33997;53.278;9.708;2022-10-23T15:13:27;15.70;92.50
48208;DHT22;33997;53.278;9.708;2022-10-23T15:16:06;15.70;92.80
48208;DHT22;33997;53.278;9.708;2022-10-23T15:18:32;15.60;92.90
48208;DHT22;33997;53.278;9.708;2022-10-23T15:20:57;15.60;93.10
48208;DHT22;33997;53.278;9.708;2022-10-23T15:23:23;15.50;93.20
48208;DHT22;33997;53.278;9.708;2022-10-23T15:25:55;15.50;93.20
48208;DHT22;33997;53.278;9.708;2022-10-23T15:28:21;15.40;93.40
48208;DHT22;33997;53.278;9.708;2022-10-23T15:30:46;15.40;93.60
48208;DHT22;33997;53.278;9.708;2022-10-23T15:33:12;15.30;93.80
48208;DHT22;33997;53.278;9.708;2022-10-23T15:35:37;15.30;93.80
48208;DHT22;33997;53.278;9.708;2022-10-23T15:38:02;15.30;94.10
48208;DHT22;33997;53.278;9.708;2022-10-23T15:40:28;15.20;94.30
48208;DHT22;33997;53.278;9.708;2022-10-23T15:42:53;15.20;94.10
48208;DHT22;33997;53.278;9.708;2022-10-23T15:45:19;15.20;94.20
48208;DHT22;33997;53.278;9.708;2022-10-23T15:47:44;15.20;94.20
48208;DHT22;33997;53.278;9.708;2022-10-23T15:50:11;15.10;94.30
48208;DHT22;33997;53.278;9.708;2022-10-23T15:52:38;15.00;94.40
48208;DHT22;33997;53.278;9.708;2022-10-23T15:55:03;15.00;94.70
48208;DHT22;33997;53.278;9.708;2022-10-23T15:57:29;15.00;94.80
48208;DHT22;33997;53.278;9.708;2022-10-23T15:59:55;15.00;94.80
48208;DHT22;33997;53.278;9.708;2022-10-23T16:02:21;15.00;94.90
48208;DHT22;33997;53.278;9.708;2022-10-23T16:04:47;15.00;94.80
48208;DHT22;33997;53.278;9.708;2022-10-23T16:07:12;15.00;94.70
48208;DHT22;33997;53.278;9.708;2022-10-23T16:09:38;14.90;94.70
48208;DHT22;33997;53.278;9.708;2022-10-23T16:12:03;14.90;95.00
48208;DHT22;33997;53.278;9.708;2022-10-23T16:14:29;14.80;94.90
48208;DHT22;33997;53.278;9.708;2022-10-23T16:16:54;14.80;95.00
48208;DHT22;33997;53.278;9.708;2022-10-23T16:19:19;14.80;95.10
48208;DHT22;33997;53.278;9.708;2022-10-23T16:21:45;14.80;95.20
48208;DHT22;33997;53.278;9.708;2022-10-23T16:24:10;14.70;95.10
48208;DHT22;33997;53.278;9.708;2022-10-23T16:26:36;14.70;95.40
48208;DHT22;33997;53.278;9.708;2022-10-23T16:29:03;14.70;95.40
48208;DHT22;33997;53.278;9.708;2022-10-23T16:31:28;14.70;95.20
48208;DHT22;33997;53.278;9.708;2022-10-23T16:33:55;14.60;95.20
48208;DHT22;33997;53.278;9.708;2022-10-23T16:36:21;14.60;95.40
48208;DHT22;33997;53.278;9.708;2022-10-23T16:38:47;14.60;95.60
48208;DHT22;33997;53.278;9.708;2022-10-23T16:41:12;14.50;95.50
48208;DHT22;33997;53.278;9.708;2022-10-23T16:43:38;14.50;95.70
48208;DHT22;33997;53.278;9.708;2022-10-23T16:46:09;14.50;95.80
48208;DHT22;33997;53.278;9.708;2022-10-23T16:48:36;14.50;95.80
48208;DHT22;33997;53.278;9.708;2022-10-23T16:51:05;14.40;95.80
48208;DHT22;33997;53.278;9.708;2022-10-23T16:53:30;14.30;95.90
48208;DHT22;33997;53.278;9.708;2022-10-23T16:55:56;14.30;96.00
48208;DHT22;33997;53.278;9.708;2022-10-23T16:58:22;14.20;96.10
48208;DHT22;33997;53.278;9.708;2022-10-23T17:00:58;14.30;96.10
48208;DHT22;33997;53.278;9.708;2022-10-23T17:03:24;14.10;96.00
48208;DHT22;33997;53.278;9.708;2022-10-23T17:05:49;14.10;96.20
48208;DHT22;33997;53.278;9.708;2022-10-23T17:08:15;14.10;96.50
48208;DHT22;33997;53.278;9.708;2022-10-23T17:10:40;14.10;96.50
48208;DHT22;33997;53.278;9.708;2022-10-23T17:13:06;14.20;96.60